createdAt,value
2017-09-18T00:01:25.438Z,4.22
2017-09-18T00:03:51.596Z,4.22
2017-09-18T00:06:17.610Z,4.32
2017-09-18T00:08:43.614Z,3.92
2017-09-18T00:11:09.658Z,4.90
2017-09-18T00:13:37.154Z,4.40
2017-09-18T00:16:03.191Z,4.20
2017-09-18T00:18:29.239Z,4.47
2017-09-18T00:20:55.247Z,4.60
2017-09-18T00:23:21.262Z,4.50
2017-09-18T00:25:47.314Z,4.70
2017-09-18T00:28:13.359Z,4.60
2017-09-18T00:30:40.123Z,4.32
2017-09-18T00:33:06.167Z,4.80
2017-09-18T00:35:32.200Z,4.85
2017-09-18T00:37:58.231Z,4.30
2017-09-18T00:40:24.262Z,4.60
2017-09-18T00:42:50.991Z,4.62
2017-09-18T00:45:17.014Z,5.00
2017-09-18T00:47:43.036Z,4.57
2017-09-18T00:50:09.066Z,4.70
2017-09-18T00:52:35.109Z,4.30
2017-09-18T00:55:01.139Z,4.43
2017-09-18T00:57:27.907Z,4.80
2017-09-18T00:59:53.946Z,4.30
2017-09-18T01:02:19.965Z,4.05
2017-09-18T01:04:46.386Z,5.10
2017-09-18T01:07:12.423Z,4.50
2017-09-18T01:09:38.443Z,4.70
2017-09-18T01:12:04.486Z,5.20
2017-09-18T01:14:30.770Z,5.07
2017-09-18T01:16:56.822Z,5.30
2017-09-18T01:19:22.842Z,4.85
2017-09-18T01:21:48.902Z,5.00
2017-09-18T01:24:14.917Z,5.10
2017-09-18T01:26:40.961Z,4.55
2017-09-18T01:29:07.722Z,5.00
2017-09-18T01:31:33.757Z,5.70
2017-09-18T01:33:59.803Z,5.23
2017-09-18T01:36:25.822Z,5.40
2017-09-18T01:38:51.851Z,5.10
2017-09-18T01:41:18.074Z,5.20
2017-09-18T01:43:44.095Z,5.90
2017-09-18T01:46:10.098Z,6.00
2017-09-18T01:48:36.144Z,5.05
2017-09-18T01:51:02.158Z,5.23
2017-09-18T01:53:28.168Z,5.80
2017-09-18T01:55:54.225Z,5.87
2017-09-18T01:58:20.254Z,6.05
2017-09-18T02:00:46.278Z,6.12
2017-09-18T02:03:12.334Z,5.95
2017-09-18T02:05:38.380Z,5.70
2017-09-18T02:08:04.395Z,5.80
2017-09-18T02:10:30.686Z,5.35
2017-09-18T02:12:56.702Z,5.30
2017-09-18T02:15:22.717Z,5.20
2017-09-18T02:17:48.745Z,5.50
2017-09-18T02:20:14.762Z,5.50
2017-09-18T02:22:40.790Z,5.30
2017-09-18T02:25:06.834Z,5.05
2017-09-18T02:27:33.594Z,5.40
2017-09-18T02:29:59.601Z,5.20
2017-09-18T02:32:26.366Z,5.90
2017-09-18T02:34:52.403Z,5.57
2017-09-18T02:37:18.410Z,5.78
2017-09-18T02:39:44.416Z,5.40
2017-09-18T02:42:10.443Z,5.22
2017-09-18T02:44:36.451Z,5.50
2017-09-18T02:47:03.218Z,5.00
2017-09-18T02:49:29.237Z,5.30
2017-09-18T02:51:55.351Z,5.60
2017-09-18T02:54:21.398Z,5.93
2017-09-18T02:56:47.410Z,5.20
2017-09-18T02:59:13.422Z,5.30
2017-09-18T03:01:39.449Z,6.00
2017-09-18T03:04:05.460Z,6.00
2017-09-18T03:06:31.490Z,6.25
2017-09-18T03:08:57.537Z,5.95
2017-09-18T03:11:23.559Z,6.20
2017-09-18T03:13:49.575Z,5.95
2017-09-18T03:16:15.871Z,6.18
2017-09-18T03:18:41.874Z,5.60
2017-09-18T03:21:08.618Z,6.20
2017-09-18T03:23:35.381Z,6.30
2017-09-18T03:26:01.401Z,6.40
2017-09-18T03:28:27.406Z,6.47
2017-09-18T03:30:54.560Z,6.12
2017-09-18T03:33:20.609Z,6.20
2017-09-18T03:35:46.606Z,6.97
2017-09-18T03:38:12.679Z,7.00
2017-09-18T03:40:38.766Z,6.00
2017-09-18T03:43:04.794Z,6.85
2017-09-18T03:45:30.838Z,6.72
2017-09-18T03:47:56.846Z,6.80
2017-09-18T03:50:22.858Z,6.00
2017-09-18T03:52:48.934Z,6.65
2017-09-18T03:55:14.978Z,7.80
2017-09-18T03:57:41.738Z,7.10
2017-09-18T04:00:07.808Z,6.82
2017-09-18T04:02:33.826Z,6.80
2017-09-18T04:04:59.861Z,6.25
2017-09-18T04:07:25.898Z,6.75
2017-09-18T04:09:52.702Z,6.30
2017-09-18T04:12:18.750Z,6.60
2017-09-18T04:14:44.814Z,6.30
2017-09-18T04:17:10.821Z,6.40
2017-09-18T04:19:37.633Z,7.40
2017-09-18T04:22:03.671Z,6.07
2017-09-18T04:24:30.426Z,6.83
2017-09-18T04:26:56.429Z,6.93
2017-09-18T04:29:23.210Z,7.40
2017-09-18T04:31:56.294Z,7.80
2017-09-18T04:34:22.327Z,8.10
2017-09-18T04:36:48.375Z,8.00
2017-09-18T04:39:14.770Z,7.37
2017-09-18T04:41:40.769Z,7.70
2017-09-18T04:44:07.540Z,7.57
2017-09-18T04:46:33.854Z,7.70
2017-09-18T04:48:59.859Z,8.10
2017-09-18T04:51:26.617Z,7.90
2017-09-18T04:53:52.844Z,8.40
2017-09-18T04:56:18.890Z,7.72
2017-09-18T04:58:44.902Z,8.87
2017-09-18T05:01:11.216Z,8.32
2017-09-18T05:03:37.246Z,8.30
2017-09-18T05:06:03.260Z,7.97
2017-09-18T05:08:29.275Z,8.50
2017-09-18T05:10:55.286Z,8.30
2017-09-18T05:13:22.046Z,8.32
2017-09-18T05:15:48.271Z,8.53
2017-09-18T05:18:14.277Z,8.27
2017-09-18T05:20:41.019Z,8.25
2017-09-18T05:23:07.091Z,7.85
2017-09-18T05:25:33.119Z,8.73
2017-09-18T05:27:59.142Z,9.07
2017-09-18T05:30:25.625Z,9.30
2017-09-18T05:32:51.647Z,8.85
2017-09-18T05:35:17.668Z,8.70
2017-09-18T05:37:44.002Z,9.57
2017-09-18T05:40:10.035Z,9.40
2017-09-18T05:42:36.053Z,9.67
2017-09-18T05:45:02.103Z,10.80
2017-09-18T05:47:28.134Z,11.07
2017-09-18T05:49:54.184Z,10.20
2017-09-18T05:52:21.294Z,10.50
2017-09-18T05:54:47.307Z,9.77
2017-09-18T05:57:13.319Z,10.77
2017-09-18T05:59:39.542Z,12.35
2017-09-18T06:02:05.565Z,13.35
2017-09-18T06:04:31.588Z,12.48
2017-09-18T06:06:57.827Z,13.50
2017-09-18T06:09:23.834Z,13.68
2017-09-18T06:11:49.851Z,13.70
2017-09-18T06:14:15.865Z,14.57
2017-09-18T06:16:41.883Z,14.68
2017-09-18T06:19:08.654Z,15.20
2017-09-18T06:21:34.702Z,16.00
2017-09-18T06:24:00.727Z,14.70
2017-09-18T06:26:27.030Z,14.45
2017-09-18T06:28:53.042Z,15.23
2017-09-18T06:31:19.415Z,13.70
2017-09-18T06:33:45.462Z,12.02
2017-09-18T06:36:12.230Z,13.60
2017-09-18T06:38:38.303Z,13.65
2017-09-18T06:41:04.681Z,12.75
2017-09-18T06:43:30.715Z,13.70
2017-09-18T06:45:56.721Z,13.02
2017-09-18T06:48:22.750Z,12.40
2017-09-18T06:50:48.810Z,11.77
2017-09-18T06:53:14.818Z,11.30
2017-09-18T06:55:40.839Z,11.20
2017-09-18T06:58:06.902Z,10.50
2017-09-18T07:00:32.919Z,10.00
2017-09-18T07:02:58.942Z,9.90
2017-09-18T07:05:24.962Z,9.70
2017-09-18T07:07:50.970Z,10.37
2017-09-18T07:10:17.247Z,8.90
2017-09-18T07:12:43.279Z,9.77
2017-09-18T07:15:09.305Z,8.50
2017-09-18T07:17:35.364Z,7.45
2017-09-18T07:20:01.380Z,6.30
2017-09-18T07:22:27.403Z,6.37
2017-09-18T07:24:53.712Z,6.07
2017-09-18T07:27:19.718Z,6.70
2017-09-18T07:29:45.740Z,6.30
2017-09-18T07:32:12.071Z,4.87
2017-09-18T07:34:38.743Z,5.50
2017-09-18T07:37:04.771Z,5.53
2017-09-18T07:39:31.054Z,5.70
2017-09-18T07:41:57.061Z,6.00
2017-09-18T07:44:23.826Z,5.60
2017-09-18T07:46:49.902Z,5.60
2017-09-18T07:49:15.918Z,5.37
2017-09-18T07:51:42.119Z,5.70
2017-09-18T07:54:08.170Z,6.32
2017-09-18T07:56:34.174Z,6.00
2017-09-18T07:59:00.219Z,6.30
2017-09-18T08:01:26.281Z,5.60
2017-09-18T08:03:52.339Z,5.28
2017-09-18T08:06:18.343Z,4.95
2017-09-18T08:08:44.546Z,5.05
2017-09-18T08:11:10.553Z,4.65
2017-09-18T08:13:37.308Z,3.80
2017-09-18T08:16:03.348Z,3.50
2017-09-18T08:18:29.361Z,3.00
2017-09-18T08:20:55.380Z,3.20
2017-09-18T08:23:21.442Z,3.00
2017-09-18T08:25:47.491Z,3.60
2017-09-18T08:28:14.264Z,3.13
2017-09-18T08:30:40.322Z,3.28
2017-09-18T08:33:06.351Z,3.50
2017-09-18T08:35:32.479Z,4.10
2017-09-18T08:37:58.874Z,4.63
2017-09-18T08:40:24.875Z,4.10
2017-09-18T08:42:50.895Z,5.00
2017-09-18T08:45:17.918Z,4.70
2017-09-18T08:47:43.934Z,4.60
2017-09-18T08:50:09.955Z,5.40
2017-09-18T08:52:36.014Z,5.35
2017-09-18T08:55:02.027Z,4.57
2017-09-18T08:57:28.787Z,4.40
2017-09-18T08:59:54.819Z,4.65
2017-09-18T09:02:20.902Z,4.57
2017-09-18T09:04:47.671Z,4.20
2017-09-18T09:07:13.715Z,4.60
2017-09-18T09:09:39.743Z,4.82
2017-09-18T09:12:05.763Z,3.97
2017-09-18T09:14:31.806Z,4.85
2017-09-18T09:16:57.834Z,4.53
2017-09-18T09:19:23.862Z,4.05
2017-09-18T09:21:50.174Z,4.20
2017-09-18T09:24:16.178Z,4.35
2017-09-18T09:26:42.230Z,4.30
2017-09-18T09:29:08.287Z,4.20
2017-09-18T09:31:34.309Z,3.47
2017-09-18T09:34:01.109Z,3.67
2017-09-18T09:36:27.450Z,4.00
2017-09-18T09:38:53.466Z,3.30
2017-09-18T09:41:19.487Z,3.70
2017-09-18T09:43:45.869Z,3.70
2017-09-18T09:46:11.878Z,3.50
2017-09-18T09:48:37.901Z,3.42
2017-09-18T09:51:03.979Z,2.80
2017-09-18T09:53:29.986Z,2.50
2017-09-18T09:55:55.996Z,2.40
2017-09-18T09:58:23.434Z,2.70
2017-09-18T10:00:49.526Z,2.12
2017-09-18T10:03:16.315Z,2.30
2017-09-18T10:05:42.430Z,2.00
2017-09-18T10:08:08.478Z,2.70
2017-09-18T10:10:34.495Z,2.92
2017-09-18T10:13:00.523Z,2.70
2017-09-18T10:15:26.542Z,2.40
2017-09-18T10:17:52.582Z,2.25
2017-09-18T10:20:18.607Z,2.80
2017-09-18T10:22:45.643Z,2.80
2017-09-18T10:25:11.799Z,3.10
2017-09-18T10:27:38.557Z,3.40
2017-09-18T10:30:04.587Z,4.18
2017-09-18T10:32:30.711Z,3.20
2017-09-18T10:34:56.746Z,3.20
2017-09-18T10:37:22.762Z,3.75
2017-09-18T10:39:48.782Z,3.10
2017-09-18T10:42:14.863Z,3.20
2017-09-18T10:44:42.379Z,3.37
2017-09-18T10:47:08.481Z,3.30
2017-09-18T10:49:34.515Z,3.50
2017-09-18T10:52:00.540Z,3.37
2017-09-18T10:54:26.991Z,3.37
2017-09-18T10:56:52.995Z,3.60
2017-09-18T10:59:19.015Z,3.30
2017-09-18T11:01:45.238Z,3.30
2017-09-18T11:04:11.298Z,3.25
2017-09-18T11:06:37.334Z,3.53
2017-09-18T11:09:03.490Z,3.50
2017-09-18T11:11:29.521Z,3.50
2017-09-18T11:13:55.543Z,3.23
2017-09-18T11:16:21.657Z,3.40
2017-09-18T11:18:47.698Z,2.93
2017-09-18T11:21:13.770Z,3.10
2017-09-18T11:23:40.216Z,2.70
2017-09-18T11:26:06.238Z,2.70
2017-09-18T11:28:33.003Z,2.95
2017-09-18T11:30:59.295Z,3.00
2017-09-18T11:33:26.077Z,3.33
2017-09-18T11:35:52.110Z,3.10
2017-09-18T11:38:18.167Z,3.15
2017-09-18T11:40:44.170Z,3.62
2017-09-18T11:43:10.218Z,3.20
2017-09-18T11:45:36.234Z,3.60
2017-09-18T11:48:02.250Z,3.90
2017-09-18T11:50:28.318Z,3.42
2017-09-18T11:52:54.390Z,3.40
2017-09-18T11:55:20.410Z,3.60
2017-09-18T11:57:46.475Z,3.53
2017-09-18T12:00:13.282Z,3.90
2017-09-18T12:02:39.282Z,3.83
2017-09-18T12:05:06.811Z,3.50
2017-09-18T12:07:32.849Z,3.50
2017-09-18T12:09:58.860Z,3.60
2017-09-18T12:12:25.101Z,4.07
2017-09-18T12:14:51.142Z,3.70
2017-09-18T12:17:17.279Z,4.50
2017-09-18T12:19:43.354Z,4.25
2017-09-18T12:22:09.362Z,4.90
2017-09-18T12:24:36.115Z,5.70
2017-09-18T12:27:02.446Z,6.10
2017-09-18T12:29:28.472Z,6.43
2017-09-18T12:31:54.490Z,6.53
2017-09-18T12:34:20.723Z,6.90
2017-09-18T12:36:46.730Z,6.85
2017-09-18T12:39:13.649Z,6.75
2017-09-18T12:41:39.682Z,7.80
2017-09-18T12:44:06.449Z,7.07
2017-09-18T12:46:32.465Z,6.85
2017-09-18T12:48:58.513Z,7.40
2017-09-18T12:51:24.532Z,7.00
2017-09-18T12:53:50.550Z,6.43
2017-09-18T12:56:16.578Z,7.68
2017-09-18T12:58:42.677Z,6.70
2017-09-18T13:01:08.694Z,6.55
2017-09-18T13:03:35.478Z,6.72
2017-09-18T13:06:01.490Z,7.20
2017-09-18T13:08:27.623Z,7.90
2017-09-18T13:10:53.629Z,9.02
2017-09-18T13:13:19.653Z,9.30
2017-09-18T13:15:45.695Z,8.63
2017-09-18T13:18:11.710Z,7.50
2017-09-18T13:20:37.722Z,8.25
2017-09-18T13:23:03.742Z,7.70
2017-09-18T13:25:29.762Z,7.22
2017-09-18T13:27:55.774Z,5.43
2017-09-18T13:30:21.989Z,5.60
2017-09-18T13:32:48.029Z,5.90
2017-09-18T13:35:14.029Z,6.10
2017-09-18T13:37:40.818Z,5.45
2017-09-18T13:40:06.868Z,6.93
2017-09-18T13:42:32.890Z,6.93
2017-09-18T13:44:58.930Z,7.80
2017-09-18T13:47:25.669Z,7.72
2017-09-18T13:49:52.414Z,7.10
2017-09-18T13:52:19.473Z,6.75
2017-09-18T13:54:45.499Z,5.75
2017-09-18T13:57:11.516Z,6.10
2017-09-18T13:59:37.558Z,5.75
2017-09-18T14:02:03.590Z,6.55
2017-09-18T14:04:29.632Z,5.10
2017-09-18T14:06:55.706Z,32.97
2017-09-18T14:09:21.710Z,25.88
2017-09-18T14:11:48.517Z,33.83
2017-09-18T14:14:14.546Z,70.05
2017-09-18T14:16:41.320Z,52.25
2017-09-18T14:19:08.077Z,5.70
2017-09-18T14:21:34.086Z,5.57
2017-09-18T14:24:00.129Z,4.78
2017-09-18T14:26:26.132Z,5.40
2017-09-18T14:28:52.142Z,4.70
2017-09-18T14:31:18.942Z,4.80
2017-09-18T14:33:44.951Z,4.28
2017-09-18T14:36:10.966Z,4.40
2017-09-18T14:38:36.990Z,4.60
2017-09-18T14:41:03.050Z,4.82
2017-09-18T14:43:29.062Z,5.15
2017-09-18T14:45:55.861Z,4.78
2017-09-18T14:48:21.878Z,4.90
2017-09-18T14:50:47.907Z,5.07
2017-09-18T14:53:13.955Z,5.60
2017-09-18T14:55:39.970Z,5.20
2017-09-18T14:58:05.969Z,5.20
2017-09-18T15:00:32.362Z,5.70
2017-09-18T15:02:59.117Z,5.87
2017-09-18T15:05:25.135Z,5.80
2017-09-18T15:07:51.478Z,5.80
2017-09-18T15:10:17.501Z,6.63
2017-09-18T15:12:43.542Z,6.22
2017-09-18T15:15:09.559Z,6.13
2017-09-18T15:17:35.575Z,6.70
2017-09-18T15:20:01.620Z,6.13
2017-09-18T15:22:27.625Z,7.00
2017-09-18T15:24:53.624Z,6.50
2017-09-18T15:27:19.846Z,5.62
2017-09-18T15:29:45.856Z,6.72
2017-09-18T15:32:12.618Z,7.15
2017-09-18T15:34:39.007Z,6.30
2017-09-18T15:37:05.812Z,5.50
2017-09-18T15:39:31.833Z,7.53
2017-09-18T15:41:57.914Z,8.77
2017-09-18T15:44:24.701Z,8.10
2017-09-18T15:46:50.718Z,9.13
2017-09-18T15:49:16.765Z,9.80
2017-09-18T15:51:42.782Z,11.18
2017-09-18T15:54:08.790Z,11.50
2017-09-18T15:56:34.815Z,11.10
2017-09-18T15:59:00.846Z,11.70
2017-09-18T16:01:26.866Z,12.85
2017-09-18T16:03:52.870Z,14.15
2017-09-18T16:06:19.176Z,13.25
2017-09-18T16:08:45.199Z,14.80
2017-09-18T16:11:11.206Z,13.27
2017-09-18T16:13:37.984Z,12.82
2017-09-18T16:16:04.002Z,11.47
2017-09-18T16:18:30.100Z,12.85
2017-09-18T16:20:56.429Z,12.60
2017-09-18T16:23:22.875Z,14.38
2017-09-18T16:25:48.958Z,13.73
2017-09-18T16:28:15.861Z,14.50
2017-09-18T16:30:41.970Z,15.05
2017-09-18T16:33:08.166Z,15.27
2017-09-18T16:35:34.296Z,16.30
2017-09-18T16:38:00.395Z,16.42
2017-09-18T16:40:26.639Z,17.25
2017-09-18T16:42:53.562Z,16.98
2017-09-18T16:45:19.760Z,17.08
2017-09-18T16:47:46.090Z,16.17
2017-09-18T16:50:12.110Z,15.80
2017-09-18T16:52:38.115Z,17.25
2017-09-18T16:55:04.195Z,16.27
2017-09-18T16:57:30.224Z,15.75
2017-09-18T16:59:56.979Z,16.70
2017-09-18T17:02:23.092Z,16.75
2017-09-18T17:04:49.134Z,16.77
2017-09-18T17:07:15.173Z,15.85
2017-09-18T17:09:41.222Z,15.85
2017-09-18T17:12:07.236Z,15.40
2017-09-18T17:14:33.306Z,16.10
2017-09-18T17:16:59.449Z,17.37
2017-09-18T17:19:25.474Z,14.57
2017-09-18T17:21:51.494Z,16.20
2017-09-18T17:24:18.020Z,15.35
2017-09-18T17:26:44.058Z,15.38
2017-09-18T17:29:10.063Z,16.17
2017-09-18T17:31:36.145Z,17.12
2017-09-18T17:34:02.931Z,16.62
2017-09-18T17:36:28.975Z,16.00
2017-09-18T17:38:55.035Z,16.70
2017-09-18T17:41:21.814Z,16.63
2017-09-18T17:43:47.998Z,17.17
2017-09-18T17:46:14.783Z,18.10
2017-09-18T17:48:40.862Z,17.20
2017-09-18T17:51:07.640Z,16.92
2017-09-18T17:53:33.972Z,18.35
2017-09-18T17:55:59.978Z,17.97
2017-09-18T17:58:26.002Z,17.55
2017-09-18T18:00:52.072Z,17.40
2017-09-18T18:03:18.081Z,17.80
2017-09-18T18:05:44.112Z,17.27
2017-09-18T18:08:10.166Z,18.77
2017-09-18T18:10:36.290Z,18.37
2017-09-18T18:13:03.136Z,18.20
2017-09-18T18:15:29.285Z,18.50
2017-09-18T18:17:55.358Z,17.83
2017-09-18T18:20:21.398Z,18.83
2017-09-18T18:22:48.186Z,19.52
2017-09-18T18:25:14.207Z,18.83
2017-09-18T18:27:40.242Z,19.48
2017-09-18T18:30:06.295Z,19.20
2017-09-18T18:32:33.886Z,20.27
2017-09-18T18:34:59.946Z,19.55
2017-09-18T18:37:26.008Z,20.00
2017-09-18T18:39:52.782Z,19.77
2017-09-18T18:42:18.801Z,19.43
2017-09-18T18:44:45.109Z,18.70
2017-09-18T18:47:11.451Z,19.00
2017-09-18T18:49:37.732Z,18.90
2017-09-18T18:52:04.177Z,20.23
2017-09-18T18:54:30.926Z,18.30
2017-09-18T18:56:56.942Z,20.23
2017-09-18T18:59:23.723Z,18.80
2017-09-18T19:01:49.750Z,20.43
2017-09-18T19:04:15.817Z,18.37
2017-09-18T19:06:42.607Z,18.90
2017-09-18T19:09:09.432Z,20.62
2017-09-18T19:11:35.872Z,21.50
2017-09-18T19:14:01.903Z,20.30
2017-09-18T19:16:28.850Z,19.85
2017-09-18T19:18:54.878Z,19.87
2017-09-18T19:21:21.496Z,19.25
2017-09-18T19:23:48.359Z,19.67
2017-09-18T19:26:14.416Z,19.90
2017-09-18T19:28:41.188Z,19.50
2017-09-18T19:31:07.274Z,20.20
2017-09-18T19:33:34.046Z,18.27
2017-09-18T19:36:00.074Z,19.92
2017-09-18T19:38:26.422Z,19.25
2017-09-18T19:40:52.451Z,17.15
2017-09-18T19:43:18.471Z,17.48
2017-09-18T19:45:44.570Z,17.15
2017-09-18T19:48:10.895Z,16.25
2017-09-18T19:50:36.926Z,14.90
2017-09-18T19:53:03.230Z,15.73
2017-09-18T19:55:29.256Z,15.90
2017-09-18T19:57:55.303Z,16.50
2017-09-18T20:00:21.374Z,16.37
2017-09-18T20:02:48.158Z,15.88
2017-09-18T20:05:14.161Z,16.80
2017-09-18T20:07:40.362Z,15.50
2017-09-18T20:10:07.131Z,16.08
2017-09-18T20:12:33.151Z,16.90
2017-09-18T20:14:59.411Z,16.67
2017-09-18T20:17:25.415Z,16.20
2017-09-18T20:19:51.431Z,16.80
2017-09-18T20:22:17.498Z,17.10
2017-09-18T20:24:43.502Z,15.40
2017-09-18T20:27:09.618Z,15.75
2017-09-18T20:29:35.999Z,17.50
2017-09-18T20:32:02.110Z,17.00
2017-09-18T20:34:28.878Z,16.92
2017-09-18T20:36:54.920Z,17.40
2017-09-18T20:39:20.930Z,15.20
2017-09-18T20:41:46.965Z,15.38
2017-09-18T20:44:13.719Z,19.02
2017-09-18T20:46:39.844Z,31.65
2017-09-18T20:49:06.089Z,41.25
2017-09-18T20:51:32.094Z,92.37
2017-09-18T20:53:58.159Z,80.28
2017-09-18T20:56:24.928Z,67.60
2017-09-18T20:58:50.958Z,83.95
2017-09-18T21:01:17.020Z,78.90
2017-09-18T21:03:43.038Z,82.15
2017-09-18T21:06:09.094Z,33.20
2017-09-18T21:08:35.127Z,106.05
2017-09-18T21:11:01.188Z,38.97
2017-09-18T21:13:27.198Z,18.08
2017-09-18T21:15:53.218Z,17.20
2017-09-18T21:18:19.250Z,17.50
2017-09-18T21:20:45.258Z,17.10
2017-09-18T21:23:11.306Z,17.80
2017-09-18T21:25:37.326Z,18.75
2017-09-18T21:28:03.329Z,18.43
2017-09-18T21:30:29.370Z,18.25
2017-09-18T21:32:55.406Z,17.55
2017-09-18T21:35:21.414Z,17.25
2017-09-18T21:37:47.430Z,17.45
2017-09-18T21:40:13.446Z,17.80
2017-09-18T21:42:39.462Z,18.62
2017-09-18T21:45:05.491Z,16.92
2017-09-18T21:47:31.511Z,16.83
2017-09-18T21:49:57.538Z,17.77
2017-09-18T21:52:23.565Z,18.10
2017-09-18T21:54:49.570Z,18.00
2017-09-18T21:57:15.578Z,19.08
2017-09-18T21:59:41.606Z,17.15
2017-09-18T22:02:07.621Z,18.08
2017-09-18T22:04:33.645Z,16.40
2017-09-18T22:06:59.706Z,17.37
2017-09-18T22:09:25.723Z,18.12
2017-09-18T22:11:51.734Z,18.33
2017-09-18T22:14:17.791Z,17.95
2017-09-18T22:16:44.542Z,17.40
2017-09-18T22:19:11.302Z,18.30
2017-09-18T22:21:37.367Z,18.50
2017-09-18T22:24:03.378Z,17.00
2017-09-18T22:26:29.394Z,17.00
2017-09-18T22:28:55.417Z,16.10
2017-09-18T22:31:21.430Z,15.48
2017-09-18T22:33:47.447Z,14.55
2017-09-18T22:36:13.478Z,15.80
2017-09-18T22:38:39.513Z,15.27
2017-09-18T22:41:05.513Z,15.30
2017-09-18T22:43:31.835Z,15.90
2017-09-18T22:45:57.853Z,14.55
2017-09-18T22:48:23.875Z,16.93
2017-09-18T22:50:49.918Z,14.80
2017-09-18T22:53:15.930Z,16.70
2017-09-18T22:55:41.958Z,14.87
2017-09-18T22:58:07.973Z,14.38
2017-09-18T23:00:34.002Z,14.50
2017-09-18T23:03:00.356Z,14.98
2017-09-18T23:05:26.370Z,14.77
2017-09-18T23:07:52.370Z,15.00
2017-09-18T23:10:18.690Z,14.30
2017-09-18T23:12:44.694Z,13.43
2017-09-18T23:15:10.706Z,14.57
2017-09-18T23:17:37.770Z,14.15
2017-09-18T23:20:03.798Z,14.18
2017-09-18T23:22:29.802Z,14.40
2017-09-18T23:24:56.588Z,14.05
2017-09-18T23:27:22.586Z,14.30
2017-09-18T23:29:48.603Z,13.85
2017-09-18T23:32:14.665Z,13.57
2017-09-18T23:34:40.687Z,14.52
2017-09-18T23:37:06.717Z,13.18
2017-09-18T23:39:33.134Z,14.52
2017-09-18T23:41:59.133Z,13.00
2017-09-18T23:44:25.150Z,15.18
2017-09-18T23:46:51.186Z,15.00
2017-09-18T23:49:17.206Z,14.25
2017-09-18T23:51:43.222Z,14.53
2017-09-18T23:54:09.540Z,14.52
2017-09-18T23:56:35.550Z,14.85
2017-09-18T23:59:01.575Z,14.40
